»·PEaware :: N236M KSMX-KRAL

N236M :: KSMX-KRAL

FLIGHT INFORMATION

Flight Status: Arrived
Operator: Privately registered:
United States
More flights under this callsign
Pilot: Mark E. (9441)
Aircraft: ROCKWELL 200 COMMANDER
(M200)
More flights by this aircraft type
Origin: KSMX Santa Maria Pub/Capt Hancock
United States
Destination: KRAL Riverside Mun
United States
More flights between these airports :: More routes between these airports
Route: +RZS V186 PDZ
File this flight plan on PilotEdge
Remarks:
Altitude:
(Current/Filed)
7,000ft
Speed:
(Current/Filed)
175kts
Departed: 06-Jan-16 03:08 PM
Arrived: 06-Jan-16 04:30 PM
Distance/Time
Traveled:
160nm/1:21
Distance/Time
To Go:
Arrived

Flight Plot

Page will automatically refresh every two minutes.


Map Options




Map Legend


Flown Route
Filed Route
Departure Airport
Arrival Airport
Navaid (VOR, NDB)
Fix

Horizontal Profiles

Position Reports

Time Latitude Longitude Heading Altitude Ground
Speed
06-Jan-16 14:41 34.897226 -120.446358 321 265ft 0kts
06-Jan-16 14:42 34.897226 -120.446358 321 265ft 0kts
06-Jan-16 14:43 34.897226 -120.446358 321 265ft 0kts
06-Jan-16 14:46 34.906686 -120.458311 198 265ft 0kts
06-Jan-16 14:47 34.906686 -120.458311 198 265ft 0kts
06-Jan-16 14:48 34.906686 -120.458311 198 265ft 0kts
06-Jan-16 14:49 34.906686 -120.458311 198 265ft 0kts
06-Jan-16 14:50 34.906686 -120.458311 198 265ft 0kts
06-Jan-16 14:51 34.906686 -120.458311 198 265ft 0kts
06-Jan-16 14:52 34.906686 -120.458311 198 265ft 0kts
06-Jan-16 14:53 34.906686 -120.458311 198 265ft 0kts
06-Jan-16 14:54 34.906686 -120.458311 198 265ft 0kts
06-Jan-16 14:55 34.906686 -120.458311 198 265ft 0kts
06-Jan-16 14:56 34.906686 -120.458311 198 265ft 0kts
06-Jan-16 14:57 34.906686 -120.458311 198 265ft 0kts
06-Jan-16 14:58 34.906260 -120.458798 222 265ft 8kts
06-Jan-16 14:59 34.903975 -120.456727 137 265ft 17kts
06-Jan-16 15:00 34.900524 -120.452645 133 265ft 24kts
06-Jan-16 15:01 34.896726 -120.448066 132 265ft 22kts
06-Jan-16 15:02 34.893925 -120.445674 181 265ft 0kts
06-Jan-16 15:03 34.893084 -120.445988 253 265ft 12kts
06-Jan-16 15:04 34.908643 -120.463101 326 871ft 107kts
06-Jan-16 15:05 34.923932 -120.441165 112 1696ft 129kts
06-Jan-16 15:06 34.911728 -120.398670 112 2404ft 137kts
06-Jan-16 15:07 34.899391 -120.356114 112 3283ft 130kts
06-Jan-16 15:08 34.888086 -120.316234 112 4258ft 124kts
06-Jan-16 15:09 34.877669 -120.279098 112 5204ft 118kts
06-Jan-16 15:09 34.869736 -120.250599 112 5962ft 113kts
06-Jan-16 15:11 34.860429 -120.216518 112 6913ft 104kts
06-Jan-16 15:12 34.849924 -120.179322 112 7010ft 150kts
06-Jan-16 15:12 34.837719 -120.137433 112 7002ft 163kts
06-Jan-16 15:13 34.822333 -120.084883 112 7000ft 166kts
06-Jan-16 15:14 34.797672 -120.044149 158 7001ft 161kts
06-Jan-16 15:15 34.760864 -120.013738 145 7002ft 171kts
06-Jan-16 15:16 34.723823 -119.977918 144 7000ft 175kts
06-Jan-16 15:17 34.686546 -119.941591 144 7000ft 175kts
06-Jan-16 15:18 34.648509 -119.904558 144 7000ft 176kts
06-Jan-16 15:19 34.610836 -119.867914 144 7000ft 176kts
06-Jan-16 15:20 34.573387 -119.831530 144 7000ft 176kts
06-Jan-16 15:21 34.535379 -119.794646 144 7000ft 176kts
06-Jan-16 15:22 34.501361 -119.754157 126 7005ft 179kts
06-Jan-16 15:23 34.474366 -119.704269 126 7000ft 179kts
06-Jan-16 15:24 34.447232 -119.654255 126 7000ft 179kts
06-Jan-16 15:25 34.420102 -119.604317 126 7000ft 179kts
06-Jan-16 15:26 34.392662 -119.553882 126 7000ft 179kts
06-Jan-16 15:27 34.365514 -119.504051 126 7000ft 179kts
06-Jan-16 15:28 34.338257 -119.454091 126 7000ft 179kts
06-Jan-16 15:30 34.318156 -119.400661 85 7003ft 183kts
06-Jan-16 15:31 34.322769 -119.343295 86 6965ft 185kts
06-Jan-16 15:32 34.327443 -119.282316 86 6990ft 184kts
06-Jan-16 15:33 34.332065 -119.221361 86 6990ft 184kts
06-Jan-16 15:34 34.336536 -119.161999 86 6990ft 184kts
06-Jan-16 15:35 34.341130 -119.100591 86 6990ft 184kts
06-Jan-16 15:36 34.345684 -119.039316 86 6990ft 184kts
06-Jan-16 15:37 34.350135 -118.979003 86 6990ft 184kts
06-Jan-16 15:38 34.354599 -118.918114 86 6991ft 184kts
06-Jan-16 15:39 34.350049 -118.859185 115 6988ft 181kts
06-Jan-16 15:40 34.331430 -118.804584 115 6991ft 181kts
06-Jan-16 15:41 34.312520 -118.749098 115 6991ft 181kts
06-Jan-16 15:42 34.296463 -118.702059 115 6991ft 181kts
06-Jan-16 15:43 34.278544 -118.649644 115 6991ft 181kts
06-Jan-16 15:44 34.259885 -118.595161 115 6991ft 181kts
06-Jan-16 15:45 34.240915 -118.539864 115 6991ft 181kts
06-Jan-16 15:46 34.222559 -118.485872 112 6990ft 181kts
06-Jan-16 15:47 34.205299 -118.429010 112 6991ft 181kts
06-Jan-16 15:48 34.188057 -118.372138 112 6991ft 181kts
06-Jan-16 15:49 34.171165 -118.316505 113 6990ft 181kts
06-Jan-16 15:50 34.154946 -118.263194 113 6990ft 181kts
06-Jan-16 15:51 34.138111 -118.207969 113 6990ft 181kts
06-Jan-16 15:52 34.120785 -118.151236 113 6990ft 181kts
06-Jan-16 15:53 34.105260 -118.094631 113 6990ft 181kts
06-Jan-16 15:54 34.087744 -118.038448 113 6990ft 181kts
06-Jan-16 15:55 34.073640 -117.993540 113 6990ft 181kts
06-Jan-16 15:56 34.059661 -117.949107 113 6990ft 181kts
06-Jan-16 15:57 34.043166 -117.898144 113 6990ft 181kts
06-Jan-16 15:58 34.028132 -117.849668 113 6990ft 181kts
06-Jan-16 15:59 34.014651 -117.803660 111 6990ft 181kts
06-Jan-16 16:00 33.998241 -117.746799 111 6990ft 181kts
06-Jan-16 16:01 33.982389 -117.691979 111 6676ft 194kts
06-Jan-16 16:02 33.967188 -117.639557 111 5907ft 190kts
06-Jan-16 16:03 33.951284 -117.584152 111 5505ft 181kts
06-Jan-16 16:04 33.935028 -117.527506 111 4996ft 176kts
06-Jan-16 16:05 33.919900 -117.474239 111 4988ft 165kts
06-Jan-16 16:06 33.905454 -117.423140 111 4989ft 163kts
06-Jan-16 16:07 33.891719 -117.374394 111 4988ft 155kts
06-Jan-16 16:07 33.881350 -117.336950 111 4990ft 129kts
06-Jan-16 16:08 33.871411 -117.299529 111 4989ft 112kts
06-Jan-16 16:09 33.861757 -117.263079 111 4991ft 117kts
06-Jan-16 16:10 33.851847 -117.225817 111 4990ft 117kts
06-Jan-16 16:11 33.842018 -117.188851 111 4990ft 117kts
06-Jan-16 16:12 33.832091 -117.151502 111 4990ft 117kts
06-Jan-16 16:13 33.830182 -117.114893 40 4984ft 123kts
06-Jan-16 16:14 33.859823 -117.121666 307 4990ft 115kts
06-Jan-16 16:15 33.881278 -117.149904 309 4989ft 112kts
06-Jan-16 16:16 33.901492 -117.177909 283 4985ft 105kts
06-Jan-16 16:17 33.908445 -117.212467 279 4376ft 109kts
06-Jan-16 16:18 33.914830 -117.244732 279 3982ft 94kts
06-Jan-16 16:19 33.920247 -117.277391 270 3366ft 102kts
06-Jan-16 16:20 33.926120 -117.307801 280 2918ft 98kts
06-Jan-16 16:21 33.931406 -117.335926 281 2482ft 100kts
06-Jan-16 16:22 33.936803 -117.363541 282 2066ft 101kts
06-Jan-16 16:23 33.942989 -117.395598 281 1482ft 96kts
06-Jan-16 16:25 33.948830 -117.425776 281 1012ft 85kts
06-Jan-16 16:26 33.951003 -117.440128 175 822ft 0kts

Navigation Log

Ident Type
Flight plan parsing failed, navigation log unavailable